This is the latest recevied weather packets stored in our database for station/object K7UHP. If no packets are shown the sender has not sent any weather packets the latest 10 day(s).
| Time | Temp. | Humidity | Pressure | Rain* | Wind** | Luminosity | Snow |
|---|---|---|---|---|---|---|---|
| 1777897524 | 15° C | 39% | 1010.9 hPa | 0 mm | - | - | - |
| 1777896923 | 15° C | 39% | 1011 hPa | 0 mm | - | - | - |
| 1777896323 | 15° C | 37% | 1011 hPa | 0 mm | - | - | - |
| 1777895722 | 13.89° C | 40% | 1010.9 hPa | 0 mm | - | - | - |
| 1777895121 | 13.89° C | 42% | 1011.1 hPa | 0 mm | - | - | - |
| 1777894520 | 14.44° C | 41% | 1011.1 hPa | 0 mm | - | - | - |
| 1777893920 | 15° C | 37% | 1011 hPa | 0 mm | - | - | - |
| 1777893319 | 15.56° C | 36% | 1010.9 hPa | 0 mm | - | - | - |
| 1777892718 | 15° C | 37% | 1011 hPa | 0 mm | - | - | - |
| 1777892117 | 15° C | 39% | 1011.1 hPa | 0 mm | - | - | - |
| 1777891517 | 15° C | 39% | 1011.1 hPa | 0 mm | - | - | - |
| 1777890916 | 14.44° C | 44% | 1010.9 hPa | 0 mm | - | - | - |
| 1777890315 | 13.89° C | 46% | 1010.8 hPa | 0 mm | - | - | - |
| 1777889714 | 14.44° C | 50% | 1010.8 hPa | 0 mm | - | - | - |
| 1777889113 | 14.44° C | 50% | 1010.7 hPa | 0 mm | - | - | - |
| 1777888513 | 14.44° C | 46% | 1010.5 hPa | 0 mm | - | - | - |
| 1777887912 | 14.44° C | 42% | 1010.4 hPa | 0 mm | - | - | - |
| 1777887311 | 15.56° C | 34% | 1010.3 hPa | 0 mm | - | - | - |
| 1777886710 | 15.56° C | 33% | 1010.2 hPa | 0 mm | - | - | - |
| 1777886109 | 15° C | 34% | 1010.2 hPa | 0 mm | - | - | - |
| 1777885509 | 15.56° C | 33% | 1010.2 hPa | 0 mm | - | - | - |
| 1777884908 | 15° C | 37% | 1010.3 hPa | 0 mm | - | - | - |
| 1777884307 | 14.44° C | 41% | 1010.3 hPa | 0 mm | - | - | - |
| 1777883706 | 14.44° C | 41% | 1010 hPa | 0 mm | - | - | - |
| 1777883105 | 14.44° C | 41% | 1009.8 hPa | 0 mm | - | - | - |
* Rain latest hour (hover to see other rain measurements)
** Current wind speed in m/s (hover to see current wind gust speed)